createdAt,value
2023-03-26T00:01:25.104Z,99910.34
2023-03-26T00:04:10.539Z,99907.06
2023-03-26T00:06:56.031Z,99911.16
2023-03-26T00:09:41.503Z,99926.84
2023-03-26T00:12:26.738Z,99924.06
2023-03-26T00:15:12.184Z,99931.00
2023-03-26T00:18:01.464Z,99931.03
2023-03-26T00:20:47.281Z,99925.91
2023-03-26T00:23:35.081Z,99935.94
2023-03-26T00:26:21.028Z,99933.63
2023-03-26T00:29:06.738Z,99935.34
2023-03-26T00:31:52.172Z,99943.75
2023-03-26T00:34:37.494Z,99926.50
2023-03-26T00:37:23.845Z,99935.13
2023-03-26T00:40:10.242Z,99940.34
2023-03-26T00:42:55.987Z,99941.13
2023-03-26T00:45:41.591Z,99946.31
2023-03-26T00:48:41.850Z,99952.34
2023-03-26T00:51:30.230Z,99941.19
2023-03-26T00:54:15.592Z,99934.41
2023-03-26T00:57:01.016Z,99943.84
2023-03-26T00:59:46.306Z,99940.34
2023-03-26T01:02:31.596Z,99935.13
2023-03-26T01:05:40.656Z,99941.09
2023-03-26T01:08:33.147Z,99938.56
2023-03-26T01:11:22.146Z,99944.59
2023-03-26T01:14:11.847Z,99941.06
2023-03-26T01:17:02.419Z,99942.69
2023-03-26T01:20:07.556Z,99933.31
2023-03-26T01:23:01.585Z,99934.13
2023-03-26T01:25:56.575Z,99932.38
2023-03-26T01:28:43.064Z,99927.31
2023-03-26T01:31:48.910Z,99927.09
2023-03-26T01:34:49.291Z,99929.72
2023-03-26T01:37:49.007Z,99933.91
2023-03-26T01:40:44.803Z,99926.19
2023-03-26T01:43:53.680Z,99928.69
2023-03-26T01:46:39.979Z,99921.84
2023-03-26T01:49:28.006Z,99914.94
2023-03-26T01:52:17.365Z,99910.69
2023-03-26T01:55:02.699Z,99911.56
2023-03-26T01:58:11.888Z,99912.41
2023-03-26T02:01:10.978Z,99900.41
2023-03-26T02:04:04.487Z,99907.34
2023-03-26T02:07:19.711Z,99903.91
2023-03-26T02:10:24.115Z,99905.63
2023-03-26T02:13:10.638Z,99895.31
2023-03-26T02:16:02.251Z,99900.47
2023-03-26T02:18:48.945Z,99902.97
2023-03-26T02:21:34.325Z,99891.94
2023-03-26T02:24:19.817Z,99886.91
2023-03-26T02:27:05.803Z,99894.63
2023-03-26T02:29:50.747Z,99885.16
2023-03-26T02:32:36.738Z,99876.56
2023-03-26T02:35:22.492Z,99872.34
2023-03-26T02:38:07.955Z,99882.63
2023-03-26T02:40:54.128Z,99868.78
2023-03-26T02:43:39.516Z,99872.22
2023-03-26T02:46:24.309Z,99870.63
2023-03-26T02:49:09.740Z,99866.28
2023-03-26T02:51:54.995Z,99866.28
2023-03-26T02:54:39.914Z,99859.41
2023-03-26T02:57:25.364Z,99862.84
2023-03-26T03:00:11.373Z,99859.41
2023-03-26T03:02:56.552Z,99857.72
2023-03-26T03:05:41.971Z,99854.28
2023-03-26T03:08:28.110Z,99851.75
2023-03-26T03:11:18.840Z,99848.31
2023-03-26T03:14:04.435Z,99842.22
2023-03-26T03:16:49.491Z,99833.69
2023-03-26T03:19:35.114Z,99830.28
2023-03-26T03:22:20.584Z,99831.94
2023-03-26T03:25:06.398Z,99819.13
2023-03-26T03:27:51.425Z,99837.13
2023-03-26T03:30:37.208Z,99826.06
2023-03-26T03:33:23.680Z,99820.88
2023-03-26T03:36:20.329Z,99831.22
2023-03-26T03:39:06.751Z,99833.75
2023-03-26T03:41:51.564Z,99827.78
2023-03-26T03:44:37.190Z,99832.09
2023-03-26T03:47:22.251Z,99829.66
2023-03-26T03:50:09.068Z,99826.03
2023-03-26T03:52:54.627Z,99825.19
2023-03-26T03:55:39.850Z,99825.19
2023-03-26T03:58:26.438Z,99824.31
2023-03-26T04:01:11.694Z,99820.84
2023-03-26T04:03:58.310Z,99820.88
2023-03-26T04:06:44.059Z,99812.34
2023-03-26T04:09:29.257Z,99813.16
2023-03-26T04:12:14.819Z,99808.91
2023-03-26T04:15:00.304Z,99808.91
2023-03-26T04:17:45.713Z,99801.19
2023-03-26T04:20:31.125Z,99790.06
2023-03-26T04:23:18.218Z,99797.00
2023-03-26T04:26:06.260Z,99790.16
2023-03-26T04:28:59.300Z,99787.59
2023-03-26T04:31:44.694Z,99785.00
2023-03-26T04:34:30.094Z,99779.94
2023-03-26T04:37:29.201Z,99785.19
2023-03-26T04:40:17.826Z,99787.72
2023-03-26T04:43:03.251Z,99778.31
2023-03-26T04:45:48.701Z,99771.38
2023-03-26T04:48:33.629Z,99774.84
2023-03-26T04:51:23.756Z,99766.28
2023-03-26T04:54:10.784Z,99762.94
2023-03-26T04:57:02.772Z,99755.13
2023-03-26T04:59:48.238Z,99748.25
2023-03-26T05:02:33.322Z,99747.53
2023-03-26T05:05:18.820Z,99753.53
2023-03-26T05:08:04.364Z,99750.84
2023-03-26T05:10:49.613Z,99742.25
2023-03-26T05:13:34.520Z,99739.72
2023-03-26T05:16:19.796Z,99745.66
2023-03-26T05:19:05.512Z,99732.81
2023-03-26T05:21:51.426Z,99736.22
2023-03-26T05:24:36.461Z,99734.47
2023-03-26T05:27:21.484Z,99719.03
2023-03-26T05:30:07.584Z,99719.03
2023-03-26T05:32:53.159Z,99718.16
2023-03-26T05:35:38.481Z,99707.06
2023-03-26T05:38:23.630Z,99707.16
2023-03-26T05:41:10.126Z,99710.53
2023-03-26T05:43:55.884Z,99692.53
2023-03-26T05:46:41.225Z,99706.19
2023-03-26T05:49:26.775Z,99707.88
2023-03-26T05:52:11.921Z,99706.25
2023-03-26T05:54:57.315Z,99696.72
2023-03-26T05:57:42.690Z,99690.72
2023-03-26T06:00:28.513Z,99696.78
2023-03-26T06:03:13.775Z,99677.91
2023-03-26T06:05:59.445Z,99689.91
2023-03-26T06:08:46.815Z,99677.97
2023-03-26T06:11:32.257Z,99682.38
2023-03-26T06:14:17.677Z,99668.63
2023-03-26T06:17:03.668Z,99672.06
2023-03-26T06:19:49.068Z,99664.25
2023-03-26T06:22:34.518Z,99657.44
2023-03-26T06:25:20.605Z,99652.25
2023-03-26T06:28:05.830Z,99646.28
2023-03-26T06:30:51.208Z,99656.63
2023-03-26T06:33:36.525Z,99654.13
2023-03-26T06:36:21.648Z,99654.94
2023-03-26T06:39:07.543Z,99648.97
2023-03-26T06:41:53.600Z,99656.09
2023-03-26T06:44:38.884Z,99647.56
2023-03-26T06:47:24.331Z,99652.72
2023-03-26T06:50:10.688Z,99642.34
2023-03-26T06:52:56.532Z,99641.53
2023-03-26T06:55:41.865Z,99630.41
2023-03-26T06:58:27.105Z,99632.09
2023-03-26T07:01:12.510Z,99623.63
2023-03-26T07:03:59.885Z,99626.16
2023-03-26T07:06:45.247Z,99620.25
2023-03-26T07:09:30.359Z,99613.41
2023-03-26T07:12:15.643Z,99596.28
2023-03-26T07:15:02.123Z,99594.53
2023-03-26T07:17:47.570Z,99586.91
2023-03-26T07:20:33.089Z,99586.00
2023-03-26T07:23:18.948Z,99584.31
2023-03-26T07:26:22.067Z,99576.59
2023-03-26T07:29:12.002Z,99584.50
2023-03-26T07:31:57.321Z,99576.84
2023-03-26T07:34:45.446Z,99565.81
2023-03-26T07:37:51.043Z,99562.50
2023-03-26T07:40:55.072Z,99553.00
2023-03-26T07:43:49.889Z,99552.00
2023-03-26T07:46:35.318Z,99556.50
2023-03-26T07:49:21.125Z,99542.66
2023-03-26T07:52:06.383Z,99541.88
2023-03-26T07:54:52.005Z,99536.69
2023-03-26T07:57:40.052Z,99540.03
2023-03-26T08:00:28.640Z,99539.16
2023-03-26T08:03:19.629Z,99546.06
2023-03-26T08:06:16.823Z,99541.72
2023-03-26T08:09:17.351Z,99550.28
2023-03-26T08:12:41.698Z,99553.78
2023-03-26T08:15:33.055Z,99553.03
2023-03-26T08:18:21.350Z,99554.06
2023-03-26T08:21:06.873Z,99550.75
2023-03-26T08:24:08.573Z,99543.06
2023-03-26T08:27:18.045Z,99533.72
2023-03-26T08:30:23.937Z,99519.13
2023-03-26T08:33:20.736Z,99520.00
2023-03-26T08:36:06.533Z,99508.00
2023-03-26T08:38:51.800Z,99499.34
2023-03-26T08:41:51.912Z,99491.63
2023-03-26T08:44:54.939Z,99492.53
2023-03-26T08:47:40.104Z,99473.59
2023-03-26T08:51:06.915Z,99456.34
2023-03-26T08:54:10.658Z,99447.72
2023-03-26T08:57:05.925Z,99445.97
2023-03-26T09:00:10.333Z,99446.00
2023-03-26T09:03:08.414Z,99456.28
2023-03-26T09:05:56.550Z,99450.28
2023-03-26T09:09:19.164Z,99439.00
2023-03-26T09:12:35.620Z,99457.00
2023-03-26T09:15:39.414Z,99454.47
2023-03-26T09:18:45.766Z,99461.38
2023-03-26T09:22:08.214Z,99458.00
2023-03-26T09:25:11.810Z,99447.66
2023-03-26T09:28:00.115Z,99460.50
2023-03-26T09:31:24.520Z,99468.22
2023-03-26T09:34:28.223Z,99459.56
2023-03-26T09:37:56.673Z,99467.38
2023-03-26T09:41:01.647Z,99470.84
2023-03-26T09:44:19.139Z,99454.47
2023-03-26T09:47:27.746Z,99446.75
2023-03-26T09:50:28.211Z,99448.47
2023-03-26T09:53:51.496Z,99454.50
2023-03-26T09:57:04.955Z,99443.31
2023-03-26T10:00:36.314Z,99447.59
2023-03-26T10:03:38.301Z,99435.50
2023-03-26T10:06:48.558Z,99430.34
2023-03-26T10:10:08.218Z,99450.97
2023-03-26T10:13:14.065Z,99460.44
2023-03-26T10:16:25.338Z,99474.06
2023-03-26T10:19:36.725Z,99483.56
2023-03-26T10:22:57.606Z,99499.84
2023-03-26T10:25:49.454Z,99505.81
2023-03-26T10:28:56.517Z,99520.41
2023-03-26T10:31:48.313Z,99517.84
2023-03-26T10:35:04.859Z,99523.03
2023-03-26T10:37:56.219Z,99531.59
2023-03-26T10:41:02.268Z,99529.84
2023-03-26T10:44:12.263Z,99532.47
2023-03-26T10:47:12.467Z,99529.00
2023-03-26T10:50:28.212Z,99521.09
2023-03-26T10:53:43.658Z,99530.72
2023-03-26T10:56:34.884Z,99534.22
2023-03-26T10:59:20.072Z,99518.78
2023-03-26T11:02:30.417Z,99518.84
2023-03-26T11:05:24.542Z,99515.41
2023-03-26T11:08:31.969Z,99507.72
2023-03-26T11:11:36.214Z,99514.56
2023-03-26T11:14:34.838Z,99515.47
2023-03-26T11:17:57.953Z,99525.78
2023-03-26T11:21:19.485Z,99511.94
2023-03-26T11:24:20.572Z,99513.66
2023-03-26T11:27:16.603Z,99512.88
2023-03-26T11:30:16.856Z,99499.22
2023-03-26T11:33:08.085Z,99500.09
2023-03-26T11:36:01.693Z,99499.19
2023-03-26T11:38:50.237Z,99499.94
2023-03-26T11:41:36.117Z,99499.00
2023-03-26T11:44:27.212Z,99499.84
2023-03-26T11:47:15.628Z,99508.47
2023-03-26T11:50:03.368Z,99504.19
2023-03-26T11:52:49.345Z,99515.38
2023-03-26T11:55:34.750Z,99513.59
2023-03-26T11:58:36.969Z,99514.31
2023-03-26T12:01:27.176Z,99517.72
2023-03-26T12:04:14.767Z,99512.63
2023-03-26T12:07:14.783Z,99514.19
2023-03-26T12:10:20.746Z,99515.13
2023-03-26T12:13:33.791Z,99511.84
2023-03-26T12:16:21.099Z,99508.41
2023-03-26T12:19:19.384Z,99511.91
2023-03-26T12:22:05.733Z,99511.84
2023-03-26T12:25:01.706Z,99508.25
2023-03-26T12:28:14.243Z,99514.19
2023-03-26T12:31:04.976Z,99508.13
2023-03-26T12:34:16.572Z,99515.03
2023-03-26T12:37:03.579Z,99519.31
2023-03-26T12:40:10.741Z,99507.25
2023-03-26T12:44:49.203Z,99506.47
2023-03-26T12:47:57.131Z,99509.91
2023-03-26T12:49:38.827Z,99510.84
2023-03-26T12:52:33.040Z,99508.22
2023-03-26T12:55:40.408Z,99510.06
2023-03-26T12:58:50.327Z,99503.66
2023-03-26T13:01:41.480Z,99497.81
2023-03-26T13:05:05.788Z,99494.44
2023-03-26T13:08:17.499Z,99495.19
2023-03-26T13:11:27.078Z,99498.72
2023-03-26T13:14:35.167Z,99493.66
2023-03-26T13:17:25.947Z,99492.94
2023-03-26T13:20:31.634Z,99494.69
2023-03-26T13:23:38.146Z,99494.41
2023-03-26T13:26:50.598Z,99499.59
2023-03-26T13:29:54.689Z,99507.25
2023-03-26T13:33:04.298Z,99497.94
2023-03-26T13:36:14.332Z,99498.88
2023-03-26T13:39:31.034Z,99504.84
2023-03-26T13:42:36.568Z,99503.19
2023-03-26T13:45:35.549Z,99504.13
2023-03-26T13:48:28.338Z,99498.19
2023-03-26T13:51:24.715Z,99498.19
2023-03-26T13:54:18.882Z,99490.38
2023-03-26T13:57:25.769Z,99491.31
2023-03-26T14:00:15.570Z,99502.50
2023-03-26T14:03:20.688Z,99484.47
2023-03-26T14:06:16.593Z,99495.59
2023-03-26T14:09:07.420Z,99491.25
2023-03-26T14:12:01.650Z,99484.22
2023-03-26T14:15:07.116Z,99495.34
2023-03-26T14:18:20.659Z,99491.94
2023-03-26T14:21:18.225Z,99493.59
2023-03-26T14:24:16.007Z,99492.69
2023-03-26T14:27:11.967Z,99488.44
2023-03-26T14:30:17.537Z,99496.19
2023-03-26T14:33:27.459Z,99484.09
2023-03-26T14:36:12.771Z,99487.59
2023-03-26T14:39:11.115Z,99494.38
2023-03-26T14:42:07.602Z,99496.19
2023-03-26T14:45:11.380Z,99502.13
2023-03-26T14:48:37.795Z,99504.81
2023-03-26T14:51:45.151Z,99500.66
2023-03-26T14:54:33.998Z,99495.50
2023-03-26T14:57:51.897Z,99504.16
2023-03-26T15:01:04.192Z,99497.03
2023-03-26T15:04:28.630Z,99502.13
2023-03-26T15:07:28.735Z,99516.75
2023-03-26T15:10:44.464Z,99518.44
2023-03-26T15:14:08.575Z,99522.69
2023-03-26T15:17:14.874Z,99535.47
2023-03-26T15:20:34.075Z,99527.78
2023-03-26T15:23:50.029Z,99534.53
2023-03-26T15:27:13.485Z,99535.25
2023-03-26T15:30:01.504Z,99534.00
2023-03-26T15:32:55.780Z,99545.97
2023-03-26T15:35:57.822Z,99545.91
2023-03-26T15:38:58.230Z,99546.81
2023-03-26T15:42:12.583Z,99550.88
2023-03-26T15:45:00.665Z,99541.47
2023-03-26T15:48:11.068Z,99556.75
2023-03-26T15:51:29.433Z,99555.88
2023-03-26T15:54:19.659Z,99551.59
2023-03-26T15:57:15.418Z,99558.56
2023-03-26T16:00:19.277Z,99566.28
2023-03-26T16:03:10.267Z,99573.09
2023-03-26T16:06:24.790Z,99573.94
2023-03-26T16:09:18.412Z,99571.28
2023-03-26T16:12:28.536Z,99570.38
2023-03-26T16:15:24.547Z,99572.31
2023-03-26T16:18:09.954Z,99569.63
2023-03-26T16:20:55.451Z,99580.00
2023-03-26T16:23:47.637Z,99577.53
2023-03-26T16:26:51.592Z,99579.28
2023-03-26T16:30:00.695Z,99583.44
2023-03-26T16:32:52.492Z,99581.00
2023-03-26T16:36:03.808Z,99578.38
2023-03-26T16:39:07.522Z,99574.06
2023-03-26T16:42:05.703Z,99570.72
2023-03-26T16:45:04.023Z,99568.81
2023-03-26T16:48:12.143Z,99580.03
2023-03-26T16:51:38.859Z,99574.06
2023-03-26T16:54:23.764Z,99581.72
2023-03-26T16:57:21.303Z,99579.00
2023-03-26T17:00:15.493Z,99566.69
2023-03-26T17:03:27.516Z,99574.47
2023-03-26T17:06:31.429Z,99565.00
2023-03-26T17:09:38.143Z,99551.09
2023-03-26T17:12:34.822Z,99548.53
2023-03-26T17:15:39.863Z,99560.53
2023-03-26T17:18:46.251Z,99562.44
2023-03-26T17:21:45.747Z,99573.50
2023-03-26T17:24:44.120Z,99571.81
2023-03-26T17:27:39.699Z,99575.09
2023-03-26T17:30:43.693Z,99568.06
2023-03-26T17:33:37.619Z,99581.94
2023-03-26T17:36:41.166Z,99586.31
2023-03-26T17:39:38.585Z,99585.38
2023-03-26T17:42:35.339Z,99595.66
2023-03-26T17:45:22.108Z,99587.94
2023-03-26T17:48:23.510Z,99578.53
2023-03-26T17:51:27.734Z,99564.69
2023-03-26T17:54:35.947Z,99572.41
2023-03-26T17:57:32.044Z,99565.31
2023-03-26T18:00:22.106Z,99554.09
2023-03-26T18:03:16.632Z,99540.22
2023-03-26T18:06:07.696Z,99549.59
2023-03-26T18:09:10.605Z,99566.81
2023-03-26T18:12:16.518Z,99569.44
2023-03-26T18:15:25.830Z,99571.88
2023-03-26T18:18:16.990Z,99572.72
2023-03-26T18:21:05.865Z,99551.75
2023-03-26T18:23:51.747Z,99528.69
2023-03-26T18:26:51.864Z,99507.25
2023-03-26T18:29:37.794Z,99496.91
2023-03-26T18:32:27.714Z,99497.63
2023-03-26T18:35:17.666Z,99512.78
2023-03-26T18:38:02.783Z,99504.03
2023-03-26T18:40:55.158Z,99485.72
2023-03-26T18:43:44.445Z,99487.41
2023-03-26T18:46:33.035Z,99486.41
2023-03-26T18:49:18.578Z,99495.88
2023-03-26T18:52:03.816Z,99510.41
2023-03-26T18:54:52.833Z,99500.09
2023-03-26T18:57:38.328Z,99499.09
2023-03-26T19:00:26.473Z,99494.88
2023-03-26T19:03:15.360Z,99488.59
2023-03-26T19:06:01.952Z,99519.56
2023-03-26T19:08:47.938Z,99536.63
2023-03-26T19:11:37.882Z,99510.78
2023-03-26T19:14:23.742Z,99497.03
2023-03-26T19:17:11.804Z,99501.19
2023-03-26T19:19:57.709Z,99509.63
2023-03-26T19:22:45.044Z,99549.16
2023-03-26T19:25:49.815Z,99573.91
2023-03-26T19:28:41.922Z,99575.53
2023-03-26T19:31:37.174Z,99596.84
2023-03-26T19:34:32.247Z,99592.97
2023-03-26T19:37:26.369Z,99601.47
2023-03-26T19:40:33.581Z,99641.69
2023-03-26T19:43:19.292Z,99649.25
2023-03-26T19:46:04.511Z,99655.09
2023-03-26T19:48:52.456Z,99677.44
2023-03-26T19:51:37.893Z,99668.31
2023-03-26T19:54:23.033Z,99681.28
2023-03-26T19:57:09.052Z,99688.41
2023-03-26T19:59:54.556Z,99697.91
2023-03-26T20:02:41.547Z,99721.16
2023-03-26T20:05:31.948Z,99737.41
2023-03-26T20:08:17.630Z,99744.34
2023-03-26T20:11:02.931Z,99762.09
2023-03-26T20:13:49.201Z,99769.09
2023-03-26T20:16:34.631Z,99772.28
2023-03-26T20:19:19.909Z,99769.16
2023-03-26T20:22:07.402Z,99776.41
2023-03-26T20:24:53.195Z,99780.59
2023-03-26T20:27:38.482Z,99780.44
2023-03-26T20:30:37.048Z,99785.06
2023-03-26T20:33:26.009Z,99783.00
2023-03-26T20:36:13.047Z,99817.31
2023-03-26T20:38:58.703Z,99816.25
2023-03-26T20:41:47.783Z,99819.56
2023-03-26T20:44:34.542Z,99817.78
2023-03-26T20:47:19.684Z,99835.63
2023-03-26T20:50:05.780Z,99849.44
2023-03-26T20:52:51.249Z,99857.69
2023-03-26T20:55:36.584Z,99854.41
2023-03-26T20:58:26.815Z,99847.47
2023-03-26T21:01:17.523Z,99844.56
2023-03-26T21:04:02.960Z,99852.53
2023-03-26T21:06:48.861Z,99858.72
2023-03-26T21:09:34.478Z,99864.44
2023-03-26T21:12:34.843Z,99873.81
2023-03-26T21:15:23.723Z,99889.22
2023-03-26T21:18:09.790Z,99894.28
2023-03-26T21:21:18.177Z,99894.00
2023-03-26T21:24:25.121Z,99903.69
2023-03-26T21:27:25.539Z,99904.50
2023-03-26T21:30:14.207Z,99902.88
2023-03-26T21:32:59.998Z,99914.38
2023-03-26T21:35:45.555Z,99930.56
2023-03-26T21:38:31.174Z,99939.75
2023-03-26T21:41:47.439Z,99945.03
2023-03-26T21:44:33.586Z,99945.16
2023-03-26T21:47:19.010Z,99949.22
2023-03-26T21:50:05.861Z,99953.50
2023-03-26T21:52:51.849Z,99947.06
2023-03-26T21:55:58.166Z,99957.56
2023-03-26T21:59:02.267Z,99959.81
2023-03-26T22:01:57.043Z,99971.88
2023-03-26T22:04:54.414Z,99979.31
2023-03-26T22:07:51.279Z,99980.94
2023-03-26T22:10:36.259Z,99980.91
2023-03-26T22:13:21.546Z,99994.56
2023-03-26T22:16:08.868Z,99997.88
2023-03-26T22:18:54.316Z,100000.44
2023-03-26T22:21:39.991Z,100001.25
2023-03-26T22:24:25.304Z,100002.50
2023-03-26T22:27:10.730Z,100020.47
2023-03-26T22:29:55.762Z,100029.13
2023-03-26T22:32:40.952Z,100023.53
2023-03-26T22:35:26.088Z,100037.09
2023-03-26T22:38:11.082Z,100040.66
2023-03-26T22:40:57.658Z,100037.84
2023-03-26T22:43:42.848Z,100044.56
2023-03-26T22:46:27.874Z,100054.78
2023-03-26T22:49:13.007Z,100059.56
2023-03-26T22:51:58.021Z,100063.91
2023-03-26T22:54:42.973Z,100077.47
2023-03-26T22:57:27.953Z,100083.47
2023-03-26T23:00:13.599Z,100079.50
2023-03-26T23:02:58.675Z,100087.25
2023-03-26T23:05:46.883Z,100104.78
2023-03-26T23:08:32.382Z,100119.66
2023-03-26T23:11:19.394Z,100128.63
2023-03-26T23:14:04.774Z,100139.47
2023-03-26T23:16:49.586Z,100142.97
2023-03-26T23:19:34.790Z,100149.94
2023-03-26T23:22:19.843Z,100145.31
2023-03-26T23:25:05.788Z,100152.41
2023-03-26T23:27:51.119Z,100166.06
2023-03-26T23:30:36.290Z,100179.56
2023-03-26T23:33:24.742Z,100192.31
2023-03-26T23:36:14.035Z,100210.69
2023-03-26T23:38:59.151Z,100208.88
2023-03-26T23:41:44.158Z,100207.75
2023-03-26T23:44:29.487Z,100223.53
2023-03-26T23:47:14.288Z,100213.25
2023-03-26T23:49:59.672Z,100220.28
2023-03-26T23:52:44.761Z,100215.78
2023-03-26T23:55:29.837Z,100222.72
2023-03-26T23:58:15.769Z,100231.06
